Time;durP1;ratioP1;P1;durP2;ratioP2;P2;SDS_P1;SDS_P2;PMS_P1;PMS_P2;Temp;Humidity;BMP_temperature;BMP_pressure;BME280_temperature;BME280_humidity;BME280_pressure;Samples;Min_cycle;Max_cycle;Signal;HPM_P1;HPM_P2
2021/10/15 00:01:59;;;;;;;3.63;3.33;;;21.30;51.80;;;;;;5146870;27;20525;-78
2021/10/15 00:04:28;;;;;;;3.47;3.13;;;21.30;51.80;;;;;;5147049;27;20465;-78
2021/10/15 00:06:56;;;;;;;3.57;3.27;;;21.30;51.80;;;;;;5146772;27;20458;-78
2021/10/15 00:09:24;;;;;;;3.23;2.93;;;21.20;51.80;;;;;;5147076;27;20441;-78
2021/10/15 00:11:52;;;;;;;5.23;3.73;;;21.20;51.90;;;;;;5146652;27;20442;-78
2021/10/15 00:14:20;;;;;;;3.50;3.30;;;21.20;51.80;;;;;;5146710;27;20425;-78
2021/10/15 00:16:48;;;;;;;4.60;3.83;;;21.20;51.90;;;;;;5146668;27;20442;-78
2021/10/15 00:19:16;;;;;;;3.40;3.10;;;21.20;51.90;;;;;;5146678;27;20445;-78
2021/10/15 00:21:46;;;;;;;3.53;3.20;;;21.20;51.80;;;;;;5146474;27;20494;-78
2021/10/15 00:24:14;;;;;;;3.90;3.60;;;21.20;52.00;;;;;;5146763;27;20514;-78
2021/10/15 00:26:42;;;;;;;3.97;3.47;;;21.20;52.00;;;;;;5145605;27;20517;-78
2021/10/15 00:29:10;;;;;;;3.90;3.00;;;21.20;52.00;;;;;;5146769;27;20457;-77
2021/10/15 00:31:38;;;;;;;3.67;3.40;;;21.20;51.90;;;;;;5146037;27;20478;-78
2021/10/15 00:34:06;;;;;;;4.13;3.77;;;21.20;51.90;;;;;;5146683;27;20433;-78
2021/10/15 00:36:34;;;;;;;6.27;3.80;;;21.20;52.00;;;;;;5146394;27;20430;-78
2021/10/15 00:39:03;;;;;;;3.73;3.53;;;21.10;51.90;;;;;;5146468;27;20437;-78
2021/10/15 00:41:31;;;;;;;3.20;3.00;;;21.10;51.90;;;;;;5146531;27;20537;-78
2021/10/15 00:44:01;;;;;;;4.10;3.30;;;21.10;52.00;;;;;;5146224;27;20462;-78
2021/10/15 00:46:29;;;;;;;3.73;3.43;;;21.10;52.00;;;;;;5146064;27;20430;-78
2021/10/15 00:48:57;;;;;;;3.60;3.23;;;21.10;52.00;;;;;;5146176;27;20476;-78
2021/10/15 00:51:25;;;;;;;5.63;3.97;;;21.10;51.90;;;;;;5145876;27;20465;-78
2021/10/15 00:53:53;;;;;;;3.73;3.50;;;21.10;51.90;;;;;;5145866;27;20476;-78
2021/10/15 00:56:23;;;;;;;4.70;3.70;;;21.10;51.90;;;;;;5146287;27;20440;-76
2021/10/15 00:58:51;;;;;;;5.07;3.33;;;21.10;51.90;;;;;;5145794;27;20441;-78
2021/10/15 01:01:19;;;;;;;4.47;4.03;;;21.10;52.00;;;;;;5145716;27;20442;-78
2021/10/15 01:03:47;;;;;;;5.43;3.97;;;21.10;51.90;;;;;;5145588;27;20585;-78
2021/10/15 01:06:16;;;;;;;3.60;3.30;;;21.10;52.00;;;;;;5145691;27;20482;-78
2021/10/15 01:08:46;;;;;;;3.63;3.33;;;21.10;52.00;;;;;;5139571;27;20458;-79
2021/10/15 01:11:14;;;;;;;4.37;3.97;;;21.10;51.90;;;;;;5141963;27;20467;-78
2021/10/15 01:13:44;;;;;;;3.87;3.57;;;21.10;52.00;;;;;;5130026;27;20462;-78
2021/10/15 01:16:12;;;;;;;4.60;4.17;;;21.10;51.90;;;;;;5125186;27;20566;-78
2021/10/15 01:18:41;;;;;;;3.97;3.67;;;21.10;52.00;;;;;;5125037;27;20498;-78
2021/10/15 01:21:11;;;;;;;3.90;3.60;;;21.10;51.90;;;;;;5124446;27;20431;-78
2021/10/15 01:23:39;;;;;;;3.93;3.40;;;21.10;52.00;;;;;;5144240;27;20448;-78
2021/10/15 01:26:07;;;;;;;4.33;3.93;;;21.10;51.90;;;;;;5145532;27;20433;-78
2021/10/15 01:28:35;;;;;;;4.00;3.53;;;21.10;51.90;;;;;;5145849;27;20487;-78
2021/10/15 01:31:03;;;;;;;3.80;3.50;;;21.10;51.90;;;;;;5145087;27;20442;-78
2021/10/15 01:33:32;;;;;;;3.90;3.60;;;21.10;52.00;;;;;;5145504;27;20422;-78
2021/10/15 01:36:00;;;;;;;4.80;4.23;;;21.10;51.90;;;;;;5145524;27;20422;-78
2021/10/15 01:38:29;;;;;;;3.80;3.50;;;21.10;51.90;;;;;;5144399;27;20438;-77
2021/10/15 01:41:01;;;;;;;3.47;3.17;;;21.10;51.80;;;;;;5144839;27;20434;-78
2021/10/15 01:43:29;;;;;;;4.43;3.80;;;21.10;51.90;;;;;;5145184;27;20446;-78
2021/10/15 01:46:00;;;;;;;6.37;4.03;;;21.10;52.00;;;;;;5144875;27;20426;-78
2021/10/15 01:48:29;;;;;;;4.30;3.90;;;21.10;51.90;;;;;;5145297;27;20489;-78
2021/10/15 01:50:57;;;;;;;6.13;3.83;;;21.10;51.90;;;;;;5148981;27;20449;-78
2021/10/15 01:53:25;;;;;;;3.70;3.50;;;21.10;51.90;;;;;;5145681;27;20441;-78
2021/10/15 01:55:54;;;;;;;4.50;3.53;;;21.10;51.90;;;;;;5145722;27;20442;-78
2021/10/15 01:58:22;;;;;;;4.97;3.37;;;21.10;52.00;;;;;;5139463;27;20433;-78
2021/10/15 02:00:50;;;;;;;4.30;3.90;;;21.10;52.00;;;;;;5144253;27;20470;-78
2021/10/15 02:03:18;;;;;;;4.00;3.70;;;21.10;52.50;;;;;;5135678;27;20426;-79
2021/10/15 02:05:49;;;;;;;4.40;4.00;;;21.10;51.90;;;;;;5133333;27;20462;-79
2021/10/15 02:08:17;;;;;;;3.67;3.47;;;21.10;51.90;;;;;;5135642;27;20557;-79
2021/10/15 02:10:45;;;;;;;3.50;3.30;;;21.10;51.90;;;;;;5144096;27;20438;-79
2021/10/15 02:13:15;;;;;;;4.70;3.90;;;21.10;52.00;;;;;;5144293;27;20429;-78
2021/10/15 02:15:43;;;;;;;4.27;3.87;;;21.10;52.00;;;;;;5139957;27;20426;-79
2021/10/15 02:18:12;;;;;;;4.37;4.07;;;21.10;51.90;;;;;;5144412;27;20422;-79
2021/10/15 02:20:41;;;;;;;3.90;3.60;;;21.10;51.90;;;;;;5142374;27;20423;-79
2021/10/15 02:23:09;;;;;;;3.90;3.50;;;21.10;52.00;;;;;;5144426;27;20430;-78
2021/10/15 02:25:37;;;;;;;5.60;4.40;;;21.10;51.90;;;;;;5141824;27;20469;-78
2021/10/15 02:28:05;;;;;;;4.30;4.00;;;21.00;51.80;;;;;;5132459;27;20532;-79
2021/10/15 02:30:35;;;;;;;4.20;3.80;;;21.10;52.00;;;;;;5148580;27;20407;-78
2021/10/15 02:33:03;;;;;;;4.90;4.50;;;21.10;51.90;;;;;;5149074;27;20442;-78
2021/10/15 02:35:31;;;;;;;4.63;4.13;;;21.00;51.80;;;;;;5145070;27;20412;-79
2021/10/15 02:38:00;;;;;;;4.20;3.27;;;21.00;51.90;;;;;;5144559;27;20481;-78
2021/10/15 02:40:35;;;;;;;4.30;3.90;;;21.00;51.90;;;;;;5144259;27;20446;-79
2021/10/15 02:43:03;;;;;;;4.23;3.93;;;21.00;51.90;;;;;;5145000;27;20464;-78
2021/10/15 02:45:32;;;;;;;5.63;3.90;;;21.00;51.90;;;;;;5144956;27;20476;-79
2021/10/15 02:48:01;;;;;;;4.30;3.80;;;21.00;51.80;;;;;;5144611;27;20458;-79
2021/10/15 02:50:29;;;;;;;4.30;4.00;;;21.00;51.90;;;;;;5146223;27;20445;-79
2021/10/15 02:52:57;;;;;;;3.73;3.50;;;21.00;51.90;;;;;;5148960;27;20441;-79
2021/10/15 02:55:25;;;;;;;3.67;3.40;;;21.00;51.80;;;;;;5147710;27;20466;-79
2021/10/15 02:57:53;;;;;;;4.40;4.00;;;21.00;52.00;;;;;;5148262;27;20521;-79
2021/10/15 03:00:21;;;;;;;5.50;3.80;;;21.00;51.80;;;;;;5143227;27;20438;-79
2021/10/15 03:02:49;;;;;;;3.80;3.50;;;21.00;51.80;;;;;;5142822;27;20447;-79
2021/10/15 03:05:19;;;;;;;4.47;4.07;;;21.00;51.90;;;;;;5135722;27;20496;-79
2021/10/15 03:07:47;;;;;;;4.07;3.67;;;21.00;51.90;;;;;;5135474;27;20440;-79
2021/10/15 03:10:15;;;;;;;4.30;3.90;;;21.00;51.80;;;;;;5148590;27;20465;-79
2021/10/15 03:12:43;;;;;;;3.80;3.50;;;21.00;51.90;;;;;;5147978;27;20423;-79
2021/10/15 03:15:11;;;;;;;4.20;3.80;;;21.00;51.90;;;;;;5147876;27;20434;-79
2021/10/15 03:17:39;;;;;;;3.60;3.40;;;21.00;51.90;;;;;;5147992;27;20446;-79
2021/10/15 03:20:08;;;;;;;3.93;3.47;;;21.00;51.90;;;;;;5148027;27;20459;-79
2021/10/15 03:22:37;;;;;;;4.37;3.63;;;21.00;52.00;;;;;;5148339;27;20473;-78
2021/10/15 03:25:06;;;;;;;4.40;4.00;;;21.00;52.00;;;;;;5148412;27;20438;-79
2021/10/15 03:27:34;;;;;;;3.53;3.30;;;21.00;52.00;;;;;;5148193;27;20465;-78
2021/10/15 03:30:02;;;;;;;4.30;3.90;;;20.90;51.90;;;;;;5147128;27;20472;-78
2021/10/15 03:32:31;;;;;;;3.60;3.40;;;20.90;51.90;;;;;;5147624;27;20553;-78
2021/10/15 03:34:59;;;;;;;4.47;4.07;;;21.00;52.10;;;;;;5147635;27;20491;-79
2021/10/15 03:37:27;;;;;;;4.20;3.80;;;21.00;52.10;;;;;;5147682;27;20442;-78
2021/10/15 03:39:56;;;;;;;4.23;3.80;;;21.00;51.90;;;;;;5147901;27;20486;-79
2021/10/15 03:42:25;;;;;;;4.40;4.10;;;21.00;51.90;;;;;;5147087;27;20446;-79
2021/10/15 03:44:53;;;;;;;5.00;4.07;;;21.00;52.10;;;;;;5147043;27;20434;-78
2021/10/15 03:47:21;;;;;;;4.50;4.10;;;21.00;52.00;;;;;;5147556;27;20506;-78
2021/10/15 03:49:49;;;;;;;4.70;3.90;;;21.00;52.00;;;;;;5147125;27;20526;-78
2021/10/15 03:52:17;;;;;;;6.70;3.93;;;21.00;52.00;;;;;;5147162;27;20442;-78
2021/10/15 03:54:45;;;;;;;8.63;4.27;;;20.90;52.00;;;;;;5147723;27;20436;-78
2021/10/15 03:57:15;;;;;;;4.23;3.87;;;21.00;52.20;;;;;;5147168;27;20465;-78
2021/10/15 03:59:43;;;;;;;4.80;4.20;;;20.90;52.00;;;;;;5147246;27;20443;-79
2021/10/15 04:02:11;;;;;;;3.90;3.60;;;20.90;52.10;;;;;;5141324;27;20461;-79
2021/10/15 04:04:39;;;;;;;4.30;3.57;;;20.90;52.10;;;;;;5133334;27;20434;-79
2021/10/15 04:07:07;;;;;;;7.67;4.60;;;20.90;52.10;;;;;;5146311;27;20438;-78
2021/10/15 04:09:35;;;;;;;5.77;4.30;;;20.90;52.20;;;;;;5146165;27;20516;-78
2021/10/15 04:12:05;;;;;;;4.10;3.80;;;20.90;52.10;;;;;;5145036;27;20441;-79
2021/10/15 04:14:34;;;;;;;4.00;3.60;;;20.90;52.20;;;;;;5145702;27;20438;-79
2021/10/15 04:17:02;;;;;;;4.60;3.83;;;20.90;52.10;;;;;;5143027;27;20458;-79
2021/10/15 04:19:30;;;;;;;3.90;3.60;;;20.90;52.10;;;;;;5145303;27;20426;-78
2021/10/15 04:21:58;;;;;;;3.77;3.50;;;20.90;52.00;;;;;;5137397;27;20434;-79
2021/10/15 04:24:26;;;;;;;5.73;4.23;;;20.90;52.10;;;;;;5146330;27;20502;-78
2021/10/15 04:26:54;;;;;;;4.00;3.70;;;20.90;52.10;;;;;;5146556;27;20470;-79
2021/10/15 04:29:22;;;;;;;4.00;3.70;;;20.90;52.10;;;;;;5146326;27;20500;-79
2021/10/15 04:31:52;;;;;;;4.10;3.80;;;20.90;52.10;;;;;;5146274;27;20434;-79
2021/10/15 04:34:20;;;;;;;3.70;3.40;;;20.90;52.10;;;;;;5146897;27;20499;-79
2021/10/15 04:36:48;;;;;;;4.80;3.77;;;20.90;52.10;;;;;;5146722;27;20454;-78
2021/10/15 04:39:16;;;;;;;16.73;3.90;;;20.90;52.10;;;;;;5146687;27;20426;-78
2021/10/15 04:41:44;;;;;;;3.90;3.60;;;20.90;52.10;;;;;;5146738;27;20452;-79
2021/10/15 04:44:13;;;;;;;4.27;3.90;;;20.90;52.10;;;;;;5146925;27;20445;-78
2021/10/15 04:46:41;;;;;;;3.70;3.40;;;20.90;52.20;;;;;;5147310;27;20449;-78
2021/10/15 04:49:11;;;;;;;4.10;3.73;;;20.90;52.10;;;;;;5146442;27;20438;-78
2021/10/15 04:51:39;;;;;;;3.90;3.63;;;20.90;52.10;;;;;;5146005;27;20469;-78
2021/10/15 04:54:07;;;;;;;3.87;3.57;;;20.90;52.10;;;;;;5142312;27;20446;-78
2021/10/15 04:56:35;;;;;;;4.27;3.67;;;20.90;52.20;;;;;;5139613;27;20485;-78
2021/10/15 04:59:03;;;;;;;4.20;3.80;;;20.90;52.20;;;;;;5144304;27;20536;-78
2021/10/15 05:01:31;;;;;;;3.93;3.60;;;20.90;52.10;;;;;;5146133;27;20430;-78
2021/10/15 05:03:59;;;;;;;3.73;3.43;;;20.90;52.10;;;;;;5146204;27;20452;-78
2021/10/15 05:06:30;;;;;;;4.00;3.60;;;20.90;52.10;;;;;;5146000;27;20454;-78
2021/10/15 05:09:12;;;;;;;4.40;3.93;;;20.90;52.10;;;;;;5146198;27;20427;-79
2021/10/15 05:11:44;;;;;;;4.70;4.00;;;20.90;52.10;;;;;;5146366;27;20482;-78
2021/10/15 05:14:12;;;;;;;4.30;3.90;;;20.90;52.10;;;;;;5146024;27;20434;-78
2021/10/15 05:16:40;;;;;;;4.00;3.60;;;20.90;52.10;;;;;;5145887;27;20469;-79
2021/10/15 05:19:08;;;;;;;4.13;3.80;;;20.90;52.10;;;;;;5145670;27;20534;-78
2021/10/15 05:21:38;;;;;;;4.03;3.77;;;20.90;52.10;;;;;;5145927;27;20426;-79
2021/10/15 05:24:06;;;;;;;4.40;3.50;;;20.90;52.20;;;;;;5145796;27;20434;-78
2021/10/15 05:26:34;;;;;;;4.23;3.53;;;20.90;52.10;;;;;;5146183;27;20433;-78
2021/10/15 05:29:02;;;;;;;3.57;3.30;;;20.90;52.70;;;;;;5146397;27;20491;-78
2021/10/15 05:31:30;;;;;;;4.30;3.20;;;20.90;52.10;;;;;;5145781;27;20440;-78
2021/10/15 05:33:58;;;;;;;4.97;3.50;;;20.90;52.70;;;;;;5146013;27;20442;-78
2021/10/15 05:36:27;;;;;;;3.30;3.10;;;20.90;52.10;;;;;;5145786;27;20433;-78
2021/10/15 05:38:56;;;;;;;3.47;3.27;;;20.90;52.00;;;;;;5146496;27;20507;-78
2021/10/15 05:41:24;;;;;;;4.40;3.67;;;20.90;52.10;;;;;;5145588;27;20438;-78
2021/10/15 05:43:52;;;;;;;3.73;3.43;;;20.90;52.20;;;;;;5145476;27;20487;-78
2021/10/15 05:46:20;;;;;;;3.83;3.50;;;20.90;52.10;;;;;;5145688;27;20483;-78
2021/10/15 05:48:48;;;;;;;4.03;3.73;;;20.90;52.00;;;;;;5145669;27;20442;-78
2021/10/15 05:51:16;;;;;;;3.33;3.07;;;20.90;52.20;;;;;;5145209;27;20497;-78
2021/10/15 05:53:45;;;;;;;4.43;3.80;;;20.90;52.10;;;;;;5136527;27;20450;-78
2021/10/15 05:56:34;;;;;;;3.50;3.30;;;20.90;52.10;;;;;;5136434;27;20439;-78
2021/10/15 05:59:03;;;;;;;4.23;3.80;;;20.90;52.00;;;;;;5144225;27;20474;-78
2021/10/15 06:01:32;;;;;;;3.77;3.47;;;20.90;52.20;;;;;;5146030;27;20449;-78
2021/10/15 06:15:00;;;;;;;4.47;4.03;;;20.80;52.40;;;;;;5145707;27;20433;-78
2021/10/15 06:17:28;;;;;;;3.80;3.50;;;20.70;52.90;;;;;;5145933;27;20445;-78
2021/10/15 06:19:56;;;;;;;3.50;3.23;;;20.70;52.40;;;;;;5146139;27;20449;-78
2021/10/15 06:22:27;;;;;;;3.47;3.20;;;20.70;52.40;;;;;;5145312;27;20445;-78
2021/10/15 06:24:56;;;;;;;4.70;3.40;;;20.70;52.50;;;;;;5140487;27;20439;-76
2021/10/15 06:27:26;;;;;;;3.40;3.10;;;20.70;52.50;;;;;;5149471;27;20430;-76
2021/10/15 06:29:54;;;;;;;3.63;3.30;;;20.70;52.40;;;;;;5140628;27;20414;-77
2021/10/15 06:32:23;;;;;;;4.10;3.70;;;20.70;52.60;;;;;;5148845;27;20440;-77
2021/10/15 06:34:51;;;;;;;3.83;3.17;;;20.70;52.60;;;;;;5150301;27;20527;-77
2021/10/15 06:37:19;;;;;;;3.10;2.80;;;20.70;52.60;;;;;;5149482;27;20426;-77
2021/10/15 06:39:51;;;;;;;3.50;3.00;;;20.70;52.70;;;;;;5149419;27;20529;-77
2021/10/15 06:42:19;;;;;;;2.83;2.60;;;20.70;52.80;;;;;;5149030;27;20502;-77
2021/10/15 06:44:49;;;;;;;3.17;2.93;;;20.70;52.80;;;;;;5149335;27;20469;-78
2021/10/15 06:47:17;;;;;;;3.83;3.10;;;20.70;52.90;;;;;;5148991;27;20422;-78
2021/10/15 06:49:45;;;;;;;3.17;2.73;;;20.70;52.80;;;;;;5148141;27;20429;-78
2021/10/15 06:52:14;;;;;;;2.57;2.47;;;20.60;52.80;;;;;;5150534;27;20514;-78
2021/10/15 06:54:42;;;;;;;2.83;2.50;;;20.60;52.90;;;;;;5148264;27;20487;-78
2021/10/15 06:57:10;;;;;;;3.07;2.83;;;20.70;53.00;;;;;;5148457;27;20430;-78
2021/10/15 06:59:38;;;;;;;2.83;2.63;;;20.60;52.90;;;;;;5147907;27;20438;-78
2021/10/15 07:02:10;;;;;;;3.57;2.50;;;20.60;53.00;;;;;;5145623;27;20491;-78
2021/10/15 07:04:39;;;;;;;2.93;2.73;;;20.60;53.00;;;;;;5147004;27;20465;-78
2021/10/15 07:07:07;;;;;;;2.70;2.50;;;20.60;53.00;;;;;;5146203;27;20437;-78
2021/10/15 07:09:35;;;;;;;2.90;2.70;;;20.60;53.00;;;;;;5148132;27;20456;-78
2021/10/15 07:12:03;;;;;;;2.57;2.37;;;20.60;53.10;;;;;;5147702;27;20537;-78
2021/10/15 07:14:31;;;;;;;2.47;2.37;;;20.60;53.10;;;;;;5147719;27;20523;-79
2021/10/15 07:16:59;;;;;;;2.30;2.20;;;20.60;53.10;;;;;;5148058;27;20473;-79
2021/10/15 07:19:28;;;;;;;3.07;2.77;;;20.50;53.10;;;;;;5148201;27;20510;-78
2021/10/15 07:21:56;;;;;;;3.80;2.70;;;20.50;53.10;;;;;;5147361;27;20430;-79
2021/10/15 07:24:24;;;;;;;2.40;2.30;;;20.50;53.10;;;;;;5147769;27;20487;-78
2021/10/15 07:26:52;;;;;;;3.00;2.80;;;20.50;53.20;;;;;;5147085;27;20422;-79
2021/10/15 07:29:20;;;;;;;2.70;2.57;;;20.50;53.20;;;;;;5147958;27;20429;-78
2021/10/15 07:31:48;;;;;;;2.70;2.60;;;20.50;53.30;;;;;;5147197;27;20490;-79
2021/10/15 07:34:16;;;;;;;3.00;2.47;;;20.50;53.30;;;;;;5147965;27;20437;-79
2021/10/15 07:36:46;;;;;;;2.90;2.70;;;20.50;53.30;;;;;;5147832;27;20426;-78
2021/10/15 07:39:20;;;;;;;2.63;2.43;;;20.50;53.30;;;;;;5147174;27;20425;-79
2021/10/15 07:41:48;;;;;;;3.10;2.90;;;20.50;53.40;;;;;;5147635;27;20445;-78
2021/10/15 07:44:16;;;;;;;2.43;2.23;;;20.50;53.30;;;;;;5147080;27;20414;-78
2021/10/15 07:46:44;;;;;;;2.63;2.00;;;20.50;53.30;;;;;;5147249;27;20425;-79
2021/10/15 07:49:12;;;;;;;3.63;2.60;;;20.50;53.40;;;;;;5147174;27;20481;-79
2021/10/15 07:51:47;;;;;;;2.97;2.60;;;20.50;53.30;;;;;;5146832;27;20466;-78
2021/10/15 07:54:15;;;;;;;2.80;2.60;;;20.50;53.40;;;;;;5147852;27;20525;-79
2021/10/15 07:56:43;;;;;;;2.70;2.50;;;20.50;53.40;;;;;;5147569;27;20426;-79
2021/10/15 07:59:15;;;;;;;3.07;2.87;;;20.50;53.50;;;;;;5147287;27;20427;-79
2021/10/15 08:01:43;;;;;;;2.87;2.70;;;20.50;53.50;;;;;;5146881;27;20426;-78
2021/10/15 08:04:13;;;;;;;2.73;2.53;;;20.50;53.50;;;;;;5147293;27;20434;-79
2021/10/15 08:06:50;;;;;;;2.80;2.60;;;20.50;53.40;;;;;;5142550;27;20504;-79
2021/10/15 08:09:21;;;;;;;3.03;2.83;;;20.50;53.30;;;;;;5146971;27;20530;-80
2021/10/15 08:11:50;;;;;;;2.90;2.70;;;20.50;53.40;;;;;;5144188;27;20530;-79
2021/10/15 08:14:18;;;;;;;3.20;2.90;;;20.50;53.40;;;;;;5146807;27;20487;-79
2021/10/15 08:16:47;;;;;;;3.13;2.57;;;20.50;53.40;;;;;;5143995;27;20430;-79
2021/10/15 08:19:34;;;;;;;2.43;2.33;;;20.50;53.40;;;;;;5147011;27;20483;-79
2021/10/15 08:22:04;;;;;;;2.80;2.70;;;20.50;53.50;;;;;;5146715;27;20476;-78
2021/10/15 08:24:32;;;;;;;2.40;2.20;;;20.50;53.40;;;;;;5147101;27;20441;-81
2021/10/15 08:27:00;;;;;;;2.67;2.57;;;20.50;53.40;;;;;;5147098;27;20438;-80
2021/10/15 08:29:30;;;;;;;3.13;2.93;;;20.50;53.40;;;;;;5146901;27;20545;-80
2021/10/15 08:31:58;;;;;;;3.27;2.60;;;20.50;53.50;;;;;;5146684;27;20458;-80
2021/10/15 08:34:26;;;;;;;2.77;2.57;;;20.50;53.50;;;;;;5146689;27;20430;-80
2021/10/15 08:36:55;;;;;;;2.80;2.60;;;20.50;53.50;;;;;;5146915;27;20442;-80
2021/10/15 08:39:26;;;;;;;3.00;2.80;;;20.50;53.50;;;;;;5146429;27;20452;-79
2021/10/15 08:41:54;;;;;;;2.70;2.50;;;20.50;53.30;;;;;;5146773;27;20442;-78
2021/10/15 08:44:27;;;;;;;3.23;2.83;;;20.60;53.50;;;;;;5146835;27;20441;-82
2021/10/15 08:46:55;;;;;;;2.70;2.50;;;20.60;54.10;;;;;;5146470;27;20434;-79
2021/10/15 08:49:43;;;;;;;2.87;2.70;;;20.80;53.60;;;;;;5146766;27;20426;-79
2021/10/15 08:52:11;;;;;;;2.07;1.97;;;20.90;53.10;;;;;;5146506;27;20500;-79
2021/10/15 08:54:43;;;;;;;2.53;2.43;;;20.90;52.90;;;;;;5145710;27;20436;-79
2021/10/15 08:57:13;;;;;;;2.50;2.30;;;21.00;53.00;;;;;;5146736;27;20422;-79
2021/10/15 08:59:44;;;;;;;2.83;2.63;;;21.30;53.00;;;;;;5146872;27;20496;-79
2021/10/15 09:02:15;;;;;;;2.57;2.47;;;21.60;52.80;;;;;;5145952;27;20430;-79
2021/10/15 09:04:46;;;;;;;2.40;2.30;;;22.00;52.80;;;;;;5144975;27;20453;-79
2021/10/15 09:07:15;;;;;;;2.87;2.20;;;22.30;51.80;;;;;;5144428;27;20429;-79
2021/10/15 09:09:45;;;;;;;2.43;2.23;;;22.30;51.20;;;;;;5145827;27;20426;-79
2021/10/15 09:12:14;;;;;;;2.60;1.90;;;22.30;51.20;;;;;;5145343;27;20462;-78
2021/10/15 09:14:45;;;;;;;2.40;2.30;;;22.40;51.40;;;;;;5146393;27;20490;-79
2021/10/15 09:17:14;;;;;;;2.60;2.20;;;22.40;51.10;;;;;;5146189;27;20475;-79
2021/10/15 09:19:43;;;;;;;2.33;2.23;;;22.60;51.60;;;;;;5146027;27;20425;-79
2021/10/15 09:22:17;;;;;;;2.40;2.20;;;22.80;51.50;;;;;;5143957;27;20510;-81
2021/10/15 09:24:57;;;;;;;2.03;1.90;;;23.00;51.40;;;;;;5134596;27;20451;-81
2021/10/15 09:27:32;;;;;;;2.13;2.03;;;23.30;51.20;;;;;;5134709;27;20446;-81
2021/10/15 09:30:02;;;;;;;2.43;2.23;;;23.60;51.00;;;;;;5136773;27;20571;-79
2021/10/15 09:32:32;;;;;;;1.70;1.60;;;23.90;50.80;;;;;;5141200;27;20465;-79
2021/10/15 09:35:17;;;;;;;3.37;2.23;;;24.20;50.60;;;;;;5142220;27;20462;-80
2021/10/15 09:37:56;;;;;;;2.00;1.87;;;24.50;50.60;;;;;;5136999;27;20559;-80
2021/10/15 09:40:39;;;;;;;1.80;1.70;;;24.80;50.40;;;;;;5140773;27;20457;-80
2021/10/15 09:43:10;;;;;;;2.30;2.10;;;25.30;50.10;;;;;;5136787;27;20535;-80
2021/10/15 09:45:39;;;;;;;1.87;1.70;;;25.50;49.50;;;;;;5138142;27;20446;-80
2021/10/15 09:48:29;;;;;;;2.27;1.93;;;25.70;49.20;;;;;;5134026;27;20447;-78
2021/10/15 09:51:15;;;;;;;2.50;2.10;;;25.70;49.00;;;;;;5131636;27;20446;-79
2021/10/15 09:54:10;;;;;;;2.33;1.87;;;25.90;49.30;;;;;;5139045;27;20516;-79
2021/10/15 09:56:45;;;;;;;1.77;1.67;;;25.90;49.00;;;;;;5136544;27;20477;-80
2021/10/15 09:59:15;;;;;;;2.13;1.90;;;26.00;49.30;;;;;;5135394;27;20435;-79
2021/10/15 10:01:49;;;;;;;1.77;1.60;;;26.00;49.20;;;;;;5144731;27;20400;-80
2021/10/15 10:04:36;;;;;;;2.00;1.90;;;26.20;49.30;;;;;;5133498;27;20436;-79
2021/10/15 10:07:10;;;;;;;4.63;1.97;;;26.40;49.20;;;;;;5136116;27;20425;-80
2021/10/15 10:10:09;;;;;;;1.73;1.63;;;26.50;49.10;;;;;;5137300;27;20425;-80
2021/10/15 10:13:14;;;;;;;1.77;1.67;;;26.70;49.10;;;;;;5140752;27;20462;-80
2021/10/15 10:15:54;;;;;;;2.17;1.63;;;27.00;48.90;;;;;;5136296;27;20428;-80
2021/10/15 10:18:32;;;;;;;3.03;1.77;;;27.30;48.80;;;;;;5138341;27;20424;-80
2021/10/15 10:24:07;;;;;;;1.47;1.37;;;27.80;48.30;;;;;;5119663;27;20556;-78
2021/10/15 10:26:43;;;;;;;2.97;1.50;;;28.20;48.10;;;;;;5143702;27;20451;-77
2021/10/15 10:29:13;;;;;;;1.77;1.67;;;28.50;47.80;;;;;;5135822;27;20473;-77
2021/10/15 10:31:42;;;;;;;1.70;1.60;;;28.70;47.70;;;;;;5136316;27;20405;-78
2021/10/15 10:34:14;;;;;;;1.60;1.40;;;29.00;47.30;;;;;;5137752;27;20440;-77
2021/10/15 10:36:42;;;;;;;1.90;1.63;;;29.20;47.00;;;;;;5131859;27;20433;-78
2021/10/15 10:39:27;;;;;;;3.00;1.50;;;29.60;46.90;;;;;;5136739;27;20458;-78
2021/10/15 10:42:07;;;;;;;5.17;1.53;;;29.80;45.90;;;;;;5141933;27;20507;-78
2021/10/15 10:44:37;;;;;;;2.13;1.90;;;29.70;45.90;;;;;;5134804;27;20465;-77
2021/10/15 10:47:15;;;;;;;1.73;1.37;;;30.00;45.90;;;;;;5143951;27;20527;-78
2021/10/15 10:50:10;;;;;;;1.93;1.70;;;30.00;45.60;;;;;;5144314;27;20562;-77
2021/10/15 10:52:42;;;;;;;2.00;1.90;;;29.70;45.30;;;;;;5138175;27;20482;-77
2021/10/15 10:55:11;;;;;;;2.07;1.80;;;29.30;45.70;;;;;;5139622;27;20424;-77
2021/10/15 10:57:42;;;;;;;2.20;1.77;;;29.00;46.20;;;;;;5139224;27;20454;-78
2021/10/15 11:00:22;;;;;;;3.67;1.73;;;28.70;46.60;;;;;;5140261;27;20453;-78
2021/10/15 11:02:52;;;;;;;2.10;1.90;;;28.50;46.90;;;;;;5143784;27;20413;-78
2021/10/15 11:05:34;;;;;;;2.23;1.53;;;28.30;47.30;;;;;;5143650;27;20429;-78
2021/10/15 11:08:30;;;;;;;5.63;2.00;;;28.20;47.70;;;;;;5145460;27;20449;-78
2021/10/15 11:11:43;;;;;;;3.23;1.83;;;28.90;48.60;;;;;;5142876;27;20479;-78
2021/10/15 11:14:39;;;;;;;2.40;1.70;;;31.10;46.00;;;;;;5121716;27;20474;-79
2021/10/15 11:17:11;;;;;;;1.90;1.77;;;33.10;42.70;;;;;;5120288;27;20439;-78
2021/10/15 11:19:40;;;;;;;1.67;1.57;;;34.40;40.50;;;;;;5144114;27;20452;-79
2021/10/15 11:22:08;;;;;;;3.53;1.87;;;35.40;38.90;;;;;;5135887;27;20450;-80
2021/10/15 11:24:38;;;;;;;1.90;1.80;;;36.40;37.20;;;;;;5138759;27;20574;-79
2021/10/15 11:27:16;;;;;;;1.93;1.83;;;37.20;35.90;;;;;;5135648;27;20457;-79
2021/10/15 11:29:51;;;;;;;1.67;1.50;;;38.10;34.40;;;;;;5138767;27;20445;-78
2021/10/15 11:33:03;;;;;;;1.90;1.70;;;38.90;33.20;;;;;;5127864;27;20453;-79
2021/10/15 11:35:45;;;;;;;2.30;1.57;;;39.50;31.70;;;;;;5131122;27;20510;-80
2021/10/15 11:38:19;;;;;;;1.60;1.50;;;40.40;30.90;;;;;;5137012;27;20450;-79
2021/10/15 11:40:48;;;;;;;1.80;1.70;;;40.90;30.30;;;;;;5141793;27;20544;-80
2021/10/15 11:43:22;;;;;;;2.37;1.60;;;41.40;29.80;;;;;;5140304;27;20470;-79
2021/10/15 11:45:57;;;;;;;1.70;1.60;;;41.70;29.30;;;;;;5142109;27;20469;-79
2021/10/15 11:48:30;;;;;;;1.60;1.50;;;42.10;28.90;;;;;;5137033;27;20506;-79
2021/10/15 11:51:06;;;;;;;2.00;1.90;;;42.00;28.10;;;;;;5133968;27;20446;-79
2021/10/15 11:53:40;;;;;;;2.03;1.80;;;41.40;28.40;;;;;;5140192;27;20437;-79
2021/10/15 11:56:17;;;;;;;1.70;1.60;;;40.40;29.10;;;;;;5137593;27;20454;-79
2021/10/15 11:59:05;;;;;;;1.80;1.70;;;40.00;30.00;;;;;;5139510;27;20515;-79
2021/10/15 12:01:59;;;;;;;1.60;1.50;;;40.40;31.00;;;;;;5135940;27;20486;-80
2021/10/15 12:04:38;;;;;;;1.30;1.20;;;41.40;30.00;;;;;;5132808;27;20465;-80
2021/10/15 12:07:17;;;;;;;1.63;1.57;;;42.20;29.00;;;;;;5143939;27;20498;-80
2021/10/15 12:09:49;;;;;;;1.43;1.33;;;42.90;28.20;;;;;;5138161;27;20429;-80
2021/10/15 12:12:25;;;;;;;1.83;1.57;;;43.20;27.80;;;;;;5136342;27;20468;-80
2021/10/15 12:14:59;;;;;;;1.50;1.40;;;43.50;27.70;;;;;;5133145;27;20639;-80
2021/10/15 12:17:32;;;;;;;1.27;1.17;;;43.80;27.40;;;;;;5142801;27;20453;-80
2021/10/15 12:20:13;;;;;;;1.60;1.50;;;44.10;27.90;;;;;;5136092;27;20449;-80
2021/10/15 12:22:42;;;;;;;1.17;1.13;;;44.10;27.40;;;;;;5140734;27;20446;-80
2021/10/15 12:25:44;;;;;;;3.07;2.20;;;43.10;27.00;;;;;;5135634;27;20493;-78
2021/10/15 12:28:15;;;;;;;2.00;1.80;;;40.80;28.60;;;;;;5140830;27;20552;-80
2021/10/15 12:30:50;;;;;;;2.90;1.70;;;39.00;30.50;;;;;;5140372;27;20452;-80
2021/10/15 12:33:24;;;;;;;2.57;2.20;;;37.70;31.80;;;;;;5137295;27;20445;-79
2021/10/15 12:39:18;;;;;;;2.47;2.27;;;38.00;33.60;;;;;;5138412;27;20463;-80
2021/10/15 12:41:52;;;;;;;2.47;2.03;;;37.40;33.50;;;;;;5139452;27;20443;-79
2021/10/15 12:47:24;;;;;;;2.70;2.60;;;36.20;34.20;;;;;;5123760;27;20451;-79
2021/10/15 12:50:13;;;;;;;5.10;2.60;;;35.50;35.90;;;;;;5123702;27;20446;-80
2021/10/15 12:52:48;;;;;;;2.70;2.50;;;36.20;36.70;;;;;;5139557;27;20481;-80
2021/10/15 12:55:26;;;;;;;3.23;2.40;;;37.40;35.10;;;;;;5130821;27;20482;-80
2021/10/15 12:58:16;;;;;;;2.40;2.20;;;38.80;32.70;;;;;;5126554;27;20483;-81
2021/10/15 13:00:51;;;;;;;2.53;2.30;;;40.10;30.80;;;;;;5132743;27;20434;-80
2021/10/15 13:03:43;;;;;;;2.60;2.40;;;41.00;29.70;;;;;;5132802;27;20437;-80
2021/10/15 13:06:30;;;;;;;2.50;2.30;;;41.80;29.40;;;;;;5131179;27;20465;-80
2021/10/15 13:09:11;;;;;;;3.13;2.27;;;42.40;28.30;;;;;;5127029;27;20460;-81
2021/10/15 13:11:43;;;;;;;3.63;2.43;;;42.90;27.80;;;;;;5134103;27;20449;-80
2021/10/15 13:14:12;;;;;;;2.40;2.30;;;43.30;27.50;;;;;;5136897;27;20447;-80
2021/10/15 13:16:55;;;;;;;2.40;2.30;;;43.50;27.20;;;;;;5128751;27;20453;-80
2021/10/15 13:19:28;;;;;;;2.33;2.13;;;43.70;26.90;;;;;;5132975;27;20449;-80
2021/10/15 13:22:07;;;;;;;2.17;2.07;;;43.80;26.90;;;;;;5133425;27;20476;-80
2021/10/15 13:24:44;;;;;;;2.23;2.13;;;43.90;26.70;;;;;;5132141;27;20473;-81
2021/10/15 13:27:27;;;;;;;3.27;2.40;;;43.90;26.70;;;;;;5132996;27;20465;-81
2021/10/15 13:30:21;;;;;;;2.13;2.03;;;43.90;27.20;;;;;;5131760;27;20447;-81
2021/10/15 13:33:04;;;;;;;2.53;2.33;;;43.80;26.70;;;;;;5138780;27;20453;-81